createdAt,value
2019-02-06T00:01:41.220Z,50.50
2019-02-06T00:04:08.254Z,50.80
2019-02-06T00:06:35.545Z,51.10
2019-02-06T00:09:05.184Z,51.50
2019-02-06T00:11:35.165Z,51.20
2019-02-06T00:14:02.456Z,51.40
2019-02-06T00:16:29.711Z,51.40
2019-02-06T00:18:56.888Z,51.40
2019-02-06T00:21:24.021Z,51.60
2019-02-06T00:23:51.111Z,51.50
2019-02-06T00:26:20.184Z,51.50
2019-02-06T00:28:47.272Z,51.60
2019-02-06T00:31:14.528Z,51.80
2019-02-06T00:33:41.628Z,51.80
2019-02-06T00:36:08.759Z,51.80
2019-02-06T00:38:35.936Z,51.90
2019-02-06T00:41:03.183Z,51.70
2019-02-06T00:43:30.262Z,51.60
2019-02-06T00:45:57.419Z,51.50
2019-02-06T00:48:24.485Z,51.70
2019-02-06T00:50:51.560Z,51.40
2019-02-06T00:53:18.675Z,51.40
2019-02-06T00:55:45.772Z,51.60
2019-02-06T00:58:12.920Z,51.70
2019-02-06T01:00:40.340Z,52.10
2019-02-06T01:03:07.501Z,51.80
2019-02-06T01:05:38.576Z,51.90
2019-02-06T01:08:04.618Z,52.00
2019-02-06T01:10:31.800Z,52.20
2019-02-06T01:12:58.919Z,52.60
2019-02-06T01:15:26.236Z,52.30
2019-02-06T01:17:54.688Z,52.40
2019-02-06T01:20:21.775Z,52.50
2019-02-06T01:22:51.983Z,52.30
2019-02-06T01:25:19.105Z,52.30
2019-02-06T01:27:46.377Z,52.50
2019-02-06T01:30:15.381Z,52.50
2019-02-06T01:32:42.497Z,52.40
2019-02-06T01:35:10.137Z,52.50
2019-02-06T01:37:37.264Z,52.60
2019-02-06T01:40:04.876Z,52.40
2019-02-06T01:42:34.813Z,52.40
2019-02-06T01:45:02.000Z,52.40
2019-02-06T01:47:29.195Z,52.40
2019-02-06T01:49:56.319Z,52.40
2019-02-06T01:52:23.541Z,52.30
2019-02-06T01:54:50.832Z,52.30
2019-02-06T01:57:17.948Z,52.20
2019-02-06T01:59:45.027Z,52.10
2019-02-06T02:02:12.145Z,52.20
2019-02-06T02:04:39.816Z,52.00
2019-02-06T02:07:06.911Z,52.10
2019-02-06T02:09:34.210Z,52.00
2019-02-06T02:12:01.299Z,51.90
2019-02-06T02:14:28.756Z,51.90
2019-02-06T02:16:55.846Z,51.90
2019-02-06T02:19:23.031Z,51.90
2019-02-06T02:21:50.215Z,51.90
2019-02-06T02:24:17.396Z,52.10
2019-02-06T02:26:44.479Z,52.10
2019-02-06T02:29:11.512Z,52.30
2019-02-06T02:31:38.904Z,52.20
2019-02-06T02:34:06.205Z,52.30
2019-02-06T02:36:33.308Z,52.40
2019-02-06T02:39:00.940Z,52.40
2019-02-06T02:41:28.217Z,52.10
2019-02-06T02:43:55.361Z,52.10
2019-02-06T02:46:22.638Z,52.20
2019-02-06T02:48:49.825Z,52.30
2019-02-06T02:51:17.033Z,52.20
2019-02-06T02:53:44.354Z,52.40
2019-02-06T02:56:14.453Z,52.40
2019-02-06T02:58:41.554Z,52.30
2019-02-06T03:01:40.316Z,52.20
2019-02-06T03:04:11.297Z,52.10
2019-02-06T03:06:38.949Z,52.30
2019-02-06T03:09:09.797Z,53.10
2019-02-06T03:11:37.193Z,52.20
2019-02-06T03:14:04.328Z,52.10
2019-02-06T03:16:31.832Z,52.20
2019-02-06T03:18:58.949Z,52.30
2019-02-06T03:21:26.311Z,52.30
2019-02-06T03:23:53.419Z,52.30
2019-02-06T03:26:20.532Z,52.30
2019-02-06T03:28:47.748Z,52.50
2019-02-06T03:31:14.841Z,52.60
2019-02-06T03:33:42.370Z,52.90
2019-02-06T03:36:09.566Z,52.60
2019-02-06T03:38:36.688Z,52.60
2019-02-06T03:41:03.876Z,52.50
2019-02-06T03:43:31.059Z,52.70
2019-02-06T03:45:58.213Z,52.70
2019-02-06T03:48:25.409Z,52.60
2019-02-06T03:50:52.477Z,52.60
2019-02-06T03:53:20.041Z,52.70
2019-02-06T03:55:47.166Z,52.70
2019-02-06T03:58:17.232Z,52.70
2019-02-06T04:00:44.346Z,52.60
2019-02-06T04:03:11.582Z,52.70
2019-02-06T04:05:38.796Z,52.80
2019-02-06T04:08:05.886Z,53.10
2019-02-06T04:10:33.004Z,53.10
2019-02-06T04:13:00.349Z,53.00
2019-02-06T04:15:27.480Z,53.00
2019-02-06T04:17:54.681Z,53.00
2019-02-06T04:20:21.886Z,52.90
2019-02-06T04:22:49.022Z,52.80
2019-02-06T04:25:16.200Z,52.90
2019-02-06T04:27:43.405Z,53.00
2019-02-06T04:30:11.266Z,53.00
2019-02-06T04:32:39.360Z,52.90
2019-02-06T04:35:07.634Z,52.60
2019-02-06T04:37:34.603Z,52.60
2019-02-06T04:40:06.274Z,52.60
2019-02-06T04:42:35.659Z,52.50
2019-02-06T04:45:03.508Z,52.60
2019-02-06T04:47:30.738Z,52.40
2019-02-06T04:49:58.764Z,52.50
2019-02-06T04:52:25.861Z,52.40
2019-02-06T04:54:54.101Z,52.40
2019-02-06T04:57:21.267Z,52.30
2019-02-06T04:59:49.393Z,52.50
2019-02-06T05:02:16.583Z,52.40
2019-02-06T05:04:44.076Z,52.50
2019-02-06T05:07:18.692Z,52.30
2019-02-06T05:09:41.288Z,52.40
2019-02-06T05:12:09.627Z,52.40
2019-02-06T05:14:36.901Z,52.40
2019-02-06T05:17:03.991Z,52.50
2019-02-06T05:19:31.533Z,52.50
2019-02-06T05:22:00.149Z,52.90
2019-02-06T05:24:27.441Z,52.70
2019-02-06T05:26:54.571Z,52.70
2019-02-06T05:29:21.782Z,52.70
2019-02-06T05:31:48.892Z,52.70
2019-02-06T05:34:17.924Z,52.70
2019-02-06T05:36:45.008Z,52.80
2019-02-06T05:39:12.320Z,52.80
2019-02-06T05:41:39.411Z,52.90
2019-02-06T05:44:09.270Z,52.80
2019-02-06T05:46:36.367Z,52.90
2019-02-06T05:49:03.477Z,52.80
2019-02-06T05:51:30.622Z,52.80
2019-02-06T05:53:57.766Z,52.60
2019-02-06T05:56:24.940Z,52.40
2019-02-06T05:58:52.464Z,52.40
2019-02-06T06:01:22.729Z,52.50
2019-02-06T06:03:49.826Z,52.40
2019-02-06T06:06:16.913Z,52.20
2019-02-06T06:08:43.987Z,52.40
2019-02-06T06:11:11.243Z,52.60
2019-02-06T06:13:38.468Z,52.60
2019-02-06T06:16:05.641Z,53.70
2019-02-06T06:18:35.224Z,52.80
2019-02-06T06:21:02.337Z,52.70
2019-02-06T06:23:29.456Z,52.80
2019-02-06T06:25:56.556Z,52.90
2019-02-06T06:28:23.637Z,52.90
2019-02-06T06:30:50.784Z,53.10
2019-02-06T06:33:19.412Z,53.10
2019-02-06T06:35:46.592Z,53.10
2019-02-06T06:38:13.705Z,53.10
2019-02-06T06:40:40.830Z,53.20
2019-02-06T06:43:07.970Z,53.10
2019-02-06T06:45:35.096Z,53.40
2019-02-06T06:48:02.236Z,53.50
2019-02-06T06:50:29.400Z,53.30
2019-02-06T06:52:56.638Z,53.20
2019-02-06T06:55:24.226Z,53.20
2019-02-06T06:57:52.496Z,53.40
2019-02-06T07:00:20.825Z,53.30
2019-02-06T07:02:48.912Z,53.30
2019-02-06T07:05:16.167Z,53.50
2019-02-06T07:07:43.301Z,53.70
2019-02-06T07:10:12.324Z,53.80
2019-02-06T07:12:39.391Z,53.50
2019-02-06T07:15:08.015Z,53.60
2019-02-06T07:17:35.088Z,53.60
2019-02-06T07:20:02.296Z,53.80
2019-02-06T07:22:29.364Z,53.90
2019-02-06T07:24:56.559Z,53.90
2019-02-06T07:27:23.643Z,53.90
2019-02-06T07:29:51.142Z,54.10
2019-02-06T07:32:18.204Z,54.20
2019-02-06T07:34:45.322Z,54.30
2019-02-06T07:37:12.383Z,54.20
2019-02-06T07:39:39.504Z,54.40
2019-02-06T07:42:08.476Z,54.50
2019-02-06T07:44:35.595Z,54.60
2019-02-06T07:47:02.731Z,54.70
2019-02-06T07:49:32.376Z,54.80
2019-02-06T07:51:59.483Z,54.90
2019-02-06T07:54:26.590Z,55.00
2019-02-06T07:56:54.157Z,54.90
2019-02-06T07:59:21.360Z,55.10
2019-02-06T08:01:48.630Z,55.20
2019-02-06T08:04:15.872Z,55.20
2019-02-06T08:06:43.408Z,56.20
2019-02-06T08:09:10.532Z,55.70
2019-02-06T08:11:37.748Z,55.60
2019-02-06T08:14:04.898Z,55.40
2019-02-06T08:16:32.108Z,55.60
2019-02-06T08:18:59.267Z,55.70
2019-02-06T08:21:26.461Z,55.90
2019-02-06T08:23:53.569Z,55.90
2019-02-06T08:26:21.112Z,56.00
2019-02-06T08:28:48.243Z,56.20
2019-02-06T08:31:15.362Z,56.30
2019-02-06T08:33:42.492Z,56.40
2019-02-06T08:36:09.609Z,56.60
2019-02-06T08:38:47.403Z,56.90
2019-02-06T08:41:06.025Z,57.20
2019-02-06T08:43:33.660Z,57.30
2019-02-06T08:46:00.768Z,57.10
2019-02-06T08:48:27.857Z,56.90
2019-02-06T08:50:54.989Z,57.10
2019-02-06T08:53:25.117Z,57.10
2019-02-06T08:55:52.224Z,57.10
2019-02-06T08:58:19.389Z,56.50
2019-02-06T09:00:46.619Z,56.10
2019-02-06T09:03:13.734Z,56.10
2019-02-06T09:05:40.920Z,56.00
2019-02-06T09:08:08.498Z,55.60
2019-02-06T09:10:35.725Z,56.20
2019-02-06T09:13:03.265Z,55.60
2019-02-06T09:15:30.433Z,55.10
2019-02-06T09:17:57.519Z,55.20
2019-02-06T09:20:25.092Z,55.00
2019-02-06T09:22:52.184Z,55.00
2019-02-06T09:25:19.591Z,54.70
2019-02-06T09:27:46.768Z,54.70
2019-02-06T09:30:15.252Z,54.20
2019-02-06T09:32:42.356Z,55.10
2019-02-06T09:35:09.456Z,54.20
2019-02-06T09:37:36.665Z,54.40
2019-02-06T09:40:04.815Z,54.50
2019-02-06T09:42:31.926Z,54.40
2019-02-06T09:45:01.445Z,54.40
2019-02-06T09:47:28.609Z,53.90
2019-02-06T09:49:55.688Z,54.20
2019-02-06T09:52:25.721Z,53.90
2019-02-06T09:54:51.843Z,53.20
2019-02-06T09:57:19.333Z,53.50
2019-02-06T09:59:46.428Z,53.50
2019-02-06T10:02:13.511Z,52.90
2019-02-06T10:04:40.588Z,53.00
2019-02-06T10:07:07.688Z,53.00
2019-02-06T10:09:34.892Z,53.00
2019-02-06T10:12:02.054Z,53.20
2019-02-06T10:14:29.728Z,52.90
2019-02-06T10:16:56.856Z,52.70
2019-02-06T10:19:23.968Z,52.90
2019-02-06T10:21:53.727Z,52.80
2019-02-06T10:24:21.072Z,51.10
2019-02-06T10:26:48.165Z,52.40
2019-02-06T10:29:15.384Z,52.60
2019-02-06T10:31:42.496Z,52.20
2019-02-06T10:34:11.540Z,51.90
2019-02-06T10:36:38.734Z,51.90
2019-02-06T10:39:07.059Z,52.00
2019-02-06T10:41:35.880Z,51.80
2019-02-06T10:44:03.033Z,51.60
2019-02-06T10:46:30.155Z,51.20
2019-02-06T10:48:57.249Z,51.10
2019-02-06T10:51:25.192Z,51.00
2019-02-06T10:53:54.554Z,50.60
2019-02-06T10:56:21.933Z,50.60
2019-02-06T10:58:49.135Z,49.60
2019-02-06T11:01:16.314Z,49.30
2019-02-06T11:03:43.410Z,49.30
2019-02-06T11:06:10.472Z,49.40
2019-02-06T11:08:38.128Z,47.90
2019-02-06T11:11:05.304Z,49.50
2019-02-06T11:13:32.613Z,49.20
2019-02-06T11:15:59.792Z,49.50
2019-02-06T11:18:27.197Z,49.50
2019-02-06T11:20:57.140Z,48.20
2019-02-06T11:23:24.353Z,49.10
2019-02-06T11:25:51.845Z,49.30
2019-02-06T11:28:19.110Z,49.70
2019-02-06T11:30:46.424Z,49.10
2019-02-06T11:33:13.916Z,48.90
2019-02-06T11:35:41.091Z,48.40
2019-02-06T11:38:08.255Z,48.40
2019-02-06T11:40:35.448Z,47.80
2019-02-06T11:43:02.788Z,47.40
2019-02-06T11:45:30.773Z,47.20
2019-02-06T11:47:57.927Z,46.60
2019-02-06T11:50:43.724Z,47.10
2019-02-06T11:53:12.090Z,46.70
2019-02-06T11:55:40.199Z,46.60
2019-02-06T11:58:07.624Z,46.40
2019-02-06T12:01:00.309Z,46.90
2019-02-06T12:03:28.964Z,47.00
2019-02-06T12:05:59.044Z,46.20
2019-02-06T12:08:27.646Z,45.80
2019-02-06T12:10:54.833Z,45.50
2019-02-06T12:13:22.015Z,44.90
2019-02-06T12:15:49.114Z,43.50
2019-02-06T12:18:16.239Z,41.30
2019-02-06T12:20:43.385Z,42.30
2019-02-06T12:23:12.421Z,42.60
2019-02-06T12:25:40.667Z,43.40
2019-02-06T12:28:08.100Z,44.90
2019-02-06T12:30:36.463Z,44.60
2019-02-06T12:33:04.208Z,43.10
2019-02-06T12:35:31.640Z,43.40
2019-02-06T12:37:58.744Z,43.30
2019-02-06T12:40:26.195Z,42.50
2019-02-06T12:42:54.388Z,43.00
2019-02-06T12:45:21.585Z,42.70
2019-02-06T12:47:49.118Z,42.20
2019-02-06T12:50:16.757Z,42.10
2019-02-06T12:52:44.102Z,42.60
2019-02-06T12:55:13.497Z,42.30
2019-02-06T12:57:43.528Z,42.10
2019-02-06T13:00:12.732Z,42.30
2019-02-06T13:02:40.012Z,41.70
2019-02-06T13:05:07.883Z,41.70
2019-02-06T13:07:34.995Z,40.80
2019-02-06T13:10:02.173Z,41.30
2019-02-06T13:12:29.587Z,41.50
2019-02-06T13:14:56.805Z,41.70
2019-02-06T13:17:24.066Z,41.90
2019-02-06T13:19:51.159Z,41.50
2019-02-06T13:22:18.307Z,42.10
2019-02-06T13:24:45.813Z,42.10
2019-02-06T13:27:12.921Z,42.20
2019-02-06T13:29:41.257Z,42.30
2019-02-06T13:32:08.340Z,42.00
2019-02-06T13:34:35.469Z,42.10
2019-02-06T13:37:02.565Z,42.00
2019-02-06T13:39:29.788Z,42.10
2019-02-06T13:41:56.875Z,42.00
2019-02-06T13:44:23.999Z,41.80
2019-02-06T13:46:53.390Z,42.00
2019-02-06T13:49:20.219Z,41.40
2019-02-06T13:51:47.452Z,41.10
2019-02-06T13:54:14.682Z,41.40
2019-02-06T13:56:41.964Z,41.30
2019-02-06T13:59:09.201Z,41.40
2019-02-06T14:01:36.307Z,41.60
2019-02-06T14:04:03.477Z,41.70
2019-02-06T14:06:31.034Z,41.70
2019-02-06T14:08:58.116Z,41.80
2019-02-06T14:11:25.454Z,41.40
2019-02-06T14:13:52.700Z,41.50
2019-02-06T14:16:21.641Z,41.50
2019-02-06T14:18:53.541Z,41.20
2019-02-06T14:21:22.653Z,41.50
2019-02-06T14:23:52.538Z,42.00
2019-02-06T14:26:45.276Z,41.60
2019-02-06T14:29:35.133Z,41.60
2019-02-06T14:32:33.937Z,41.40
2019-02-06T14:35:15.783Z,41.50
2019-02-06T14:38:01.188Z,41.30
2019-02-06T14:40:50.669Z,40.50
2019-02-06T14:43:37.414Z,40.30
2019-02-06T14:46:26.816Z,40.50
2019-02-06T14:49:09.312Z,40.70
2019-02-06T14:52:02.378Z,40.50
2019-02-06T14:54:34.308Z,40.80
2019-02-06T14:57:15.460Z,40.80
2019-02-06T14:59:56.252Z,41.50
2019-02-06T15:02:29.940Z,40.70
2019-02-06T15:05:01.797Z,40.40
2019-02-06T15:07:48.736Z,39.80
2019-02-06T15:10:34.514Z,39.60
2019-02-06T15:13:09.400Z,39.50
2019-02-06T15:16:06.169Z,39.50
2019-02-06T15:18:38.787Z,39.40
2019-02-06T15:21:40.808Z,39.80
2019-02-06T15:24:36.912Z,39.70
2019-02-06T15:27:29.555Z,40.00
2019-02-06T15:30:02.015Z,40.10
2019-02-06T15:32:47.548Z,40.40
2019-02-06T15:35:21.488Z,40.60
2019-02-06T15:38:12.116Z,40.80
2019-02-06T15:40:50.860Z,41.10
2019-02-06T15:43:40.457Z,41.30
2019-02-06T15:46:36.229Z,42.30
2019-02-06T15:49:18.568Z,42.20
2019-02-06T15:51:58.872Z,42.20
2019-02-06T15:54:44.223Z,42.30
2019-02-06T15:57:43.047Z,42.30
2019-02-06T16:00:26.215Z,42.40
2019-02-06T16:03:10.590Z,42.60
2019-02-06T16:05:53.817Z,42.90
2019-02-06T16:08:52.858Z,43.10
2019-02-06T16:11:22.720Z,43.40
2019-02-06T16:14:09.379Z,43.60
2019-02-06T16:16:54.967Z,44.00
2019-02-06T16:19:28.028Z,45.00
2019-02-06T16:22:30.508Z,44.40
2019-02-06T16:25:17.280Z,44.30
2019-02-06T16:28:07.079Z,44.20
2019-02-06T16:31:00.001Z,44.10
2019-02-06T16:33:38.208Z,44.00
2019-02-06T16:36:13.669Z,43.90
2019-02-06T16:38:51.315Z,43.80
2019-02-06T16:41:36.411Z,44.00
2019-02-06T16:44:25.877Z,44.20
2019-02-06T16:47:12.595Z,44.30
2019-02-06T16:49:53.878Z,44.40
2019-02-06T16:52:58.502Z,44.60
2019-02-06T16:55:56.964Z,44.60
2019-02-06T16:58:40.012Z,44.80
2019-02-06T17:01:32.622Z,45.20
2019-02-06T17:04:05.586Z,45.00
2019-02-06T17:06:47.694Z,45.20
2019-02-06T17:09:33.037Z,45.20
2019-02-06T17:12:07.385Z,45.50
2019-02-06T17:14:56.012Z,45.70
2019-02-06T17:17:32.740Z,45.80
2019-02-06T17:20:34.456Z,45.90
2019-02-06T17:23:08.767Z,46.00
2019-02-06T17:25:40.412Z,47.40
2019-02-06T17:28:20.422Z,46.60
2019-02-06T17:31:05.455Z,46.30
2019-02-06T17:33:42.062Z,46.30
2019-02-06T17:36:16.625Z,46.30
2019-02-06T17:39:06.261Z,46.40
2019-02-06T17:42:15.353Z,46.50
2019-02-06T17:44:58.514Z,46.70
2019-02-06T17:47:51.233Z,46.90
2019-02-06T17:50:24.800Z,46.80
2019-02-06T17:53:16.003Z,47.10
2019-02-06T17:55:43.137Z,47.20
2019-02-06T17:58:10.636Z,47.50
2019-02-06T18:00:54.410Z,47.40
2019-02-06T18:03:21.815Z,47.60
2019-02-06T18:05:49.391Z,47.70
2019-02-06T18:08:16.555Z,47.90
2019-02-06T18:10:43.800Z,47.90
2019-02-06T18:13:11.113Z,48.00
2019-02-06T18:15:38.311Z,47.90
2019-02-06T18:18:05.428Z,47.90
2019-02-06T18:20:32.616Z,48.00
2019-02-06T18:23:01.330Z,48.30
2019-02-06T18:25:28.556Z,48.30
2019-02-06T18:27:55.712Z,48.30
2019-02-06T18:30:23.608Z,48.40
2019-02-06T18:32:52.323Z,48.80
2019-02-06T18:35:19.508Z,48.80
2019-02-06T18:37:47.553Z,48.90
2019-02-06T18:40:14.981Z,48.90
2019-02-06T18:42:42.462Z,49.00
2019-02-06T18:45:12.139Z,49.40
2019-02-06T18:47:40.605Z,49.30
2019-02-06T18:50:10.209Z,49.30
2019-02-06T18:52:37.313Z,49.60
2019-02-06T18:55:05.000Z,49.50
2019-02-06T18:57:32.192Z,49.50
2019-02-06T18:59:59.411Z,49.40
2019-02-06T19:02:26.691Z,49.50
2019-02-06T19:04:53.898Z,49.50
2019-02-06T19:07:23.642Z,49.50
2019-02-06T19:09:50.349Z,49.50
2019-02-06T19:12:17.625Z,49.50
2019-02-06T19:14:45.158Z,49.60
2019-02-06T19:17:14.893Z,49.60
2019-02-06T19:19:41.577Z,49.80
2019-02-06T19:22:08.851Z,49.90
2019-02-06T19:24:36.074Z,50.00
2019-02-06T19:27:03.720Z,50.00
2019-02-06T19:29:30.978Z,49.80
2019-02-06T19:31:58.248Z,50.60
2019-02-06T19:34:25.372Z,50.10
2019-02-06T19:36:54.452Z,50.20
2019-02-06T19:39:21.602Z,50.20
2019-02-06T19:41:48.987Z,50.20
2019-02-06T19:44:16.256Z,50.20
2019-02-06T19:46:43.812Z,50.20
2019-02-06T19:49:11.110Z,50.30
2019-02-06T19:51:38.289Z,50.60
2019-02-06T19:54:05.664Z,50.30
2019-02-06T19:56:32.788Z,50.40
2019-02-06T19:58:59.953Z,50.60
2019-02-06T20:01:27.541Z,50.40
2019-02-06T20:03:54.913Z,50.60
2019-02-06T20:06:30.818Z,50.70
2019-02-06T20:08:59.416Z,50.60
2019-02-06T20:11:29.255Z,50.60
2019-02-06T20:13:56.913Z,50.60
2019-02-06T20:16:31.260Z,50.90
2019-02-06T20:18:58.614Z,51.00
2019-02-06T20:21:25.786Z,51.10
2019-02-06T20:23:53.038Z,51.00
2019-02-06T20:26:20.497Z,51.10
2019-02-06T20:28:47.649Z,51.20
2019-02-06T20:31:14.921Z,51.40
2019-02-06T20:33:42.189Z,51.60
2019-02-06T20:36:09.434Z,51.60
2019-02-06T20:38:36.728Z,51.60
2019-02-06T20:41:04.109Z,51.50
2019-02-06T20:43:31.353Z,51.60
2019-02-06T20:45:58.827Z,51.50
2019-02-06T20:48:26.067Z,51.50
2019-02-06T20:50:53.267Z,51.50
2019-02-06T20:53:20.479Z,51.50
2019-02-06T20:55:47.781Z,51.40
2019-02-06T20:58:14.893Z,51.40
2019-02-06T21:00:42.004Z,51.60
2019-02-06T21:03:09.194Z,51.40
2019-02-06T21:05:36.558Z,51.40
2019-02-06T21:08:03.993Z,51.30
2019-02-06T21:10:31.204Z,51.40
2019-02-06T21:13:00.215Z,51.50
2019-02-06T21:15:27.542Z,51.50
2019-02-06T21:17:54.807Z,51.40
2019-02-06T21:20:22.078Z,51.20
2019-02-06T21:22:49.473Z,51.20
2019-02-06T21:25:17.292Z,51.20
2019-02-06T21:27:44.520Z,51.10
2019-02-06T21:30:18.861Z,51.10
2019-02-06T21:32:46.086Z,51.10
2019-02-06T21:35:13.301Z,51.10
2019-02-06T21:37:40.777Z,51.10
2019-02-06T21:40:10.031Z,51.10
2019-02-06T21:42:39.496Z,51.10
2019-02-06T21:45:07.029Z,51.50
2019-02-06T21:47:35.732Z,51.50
2019-02-06T21:50:04.141Z,51.60
2019-02-06T21:52:31.371Z,51.40
2019-02-06T21:54:58.604Z,51.50
2019-02-06T21:57:26.088Z,51.50
2019-02-06T21:59:53.234Z,51.50
2019-02-06T22:02:20.456Z,51.30
2019-02-06T22:04:47.767Z,51.30
2019-02-06T22:07:14.875Z,51.40
2019-02-06T22:09:42.151Z,51.50
2019-02-06T22:12:09.697Z,51.30
2019-02-06T22:14:36.841Z,51.40
2019-02-06T22:17:03.981Z,51.30
2019-02-06T22:19:31.096Z,51.50
2019-02-06T22:21:58.179Z,51.60
2019-02-06T22:24:26.367Z,51.60
2019-02-06T22:26:53.533Z,51.70
2019-02-06T22:29:20.696Z,51.50
2019-02-06T22:31:47.844Z,51.70
2019-02-06T22:34:15.180Z,52.20
2019-02-06T22:36:42.314Z,51.30
2019-02-06T22:39:10.001Z,51.30
2019-02-06T22:41:37.916Z,51.20
2019-02-06T22:44:06.607Z,51.30
2019-02-06T22:46:34.094Z,51.50
2019-02-06T22:49:01.392Z,51.70
2019-02-06T22:51:28.850Z,51.60
2019-02-06T22:53:55.992Z,51.80
2019-02-06T22:56:23.189Z,51.80
2019-02-06T22:58:50.262Z,51.90
2019-02-06T23:01:28.272Z,52.30
2019-02-06T23:03:55.483Z,52.40
2019-02-06T23:06:23.076Z,52.30
2019-02-06T23:08:50.182Z,52.60
2019-02-06T23:11:17.308Z,52.80
2019-02-06T23:13:45.054Z,52.90
2019-02-06T23:16:12.396Z,53.30
2019-02-06T23:18:39.498Z,53.50
2019-02-06T23:21:06.624Z,53.10
2019-02-06T23:23:34.106Z,53.00
2019-02-06T23:26:01.849Z,52.90
2019-02-06T23:28:32.095Z,52.90
2019-02-06T23:31:00.691Z,53.00
2019-02-06T23:33:27.761Z,53.10
2019-02-06T23:35:54.932Z,53.00
2019-02-06T23:38:22.028Z,53.00
2019-02-06T23:40:49.432Z,52.90
2019-02-06T23:43:16.533Z,52.90
2019-02-06T23:45:43.668Z,52.90
2019-02-06T23:48:10.785Z,52.90
2019-02-06T23:50:37.978Z,53.00
2019-02-06T23:53:05.065Z,53.10
2019-02-06T23:55:32.180Z,53.00
2019-02-06T23:58:01.906Z,53.20
